Amuleth — 5BTE4 — position and weather

sailwx.info

Track history (hours):
 
Tides and Currents Weather Stations Pressure Air Temp Water Temp Dewpoint Dewpoint Depression Visibility Wind Speed Wind Dir Waves Ship Positions

Amuleth

Last reported at 2018-Aug-14 23:28 UTC. Time now 2018-Aug-14 23:45 UTC.
Position N 53°38' E 008°07'.

Length 102 m; draft 6.9 m.

Type: Ship (hazmat cat B). MMSI: 209066000.

Date/timePositionNaut miles runAvg speedWind from/ knotsBaromVisibWave heightAir tempDewpointWater temp
2018-Aug-14 23:28N 53°38' E 008°07'0 0.0
2018-Aug-14 22:55N 53°38' E 008°07'0 0.0
2018-Aug-14 14:13N 53°38' E 008°07'0 2.2
2018-Aug-14 14:00N 53°39' E 008°06'4 8.3
2018-Aug-14 13:30N 53°43' E 008°04'5 9.5
2018-Aug-14 13:00N 53°47' E 008°02'611.8
2018-Aug-14 12:30N 53°50' E 007°53'7510.4
2018-Aug-14 05:14N 53°38' E 005°47'310.7
2018-Aug-14 04:59N 53°37' E 005°43'510.6
2018-Aug-14 04:30N 53°35' E 005°35'510.4
2018-Aug-14 04:00N 53°34' E 005°27'510.1
2018-Aug-14 03:30N 53°32' E 005°19'5 9.9
2018-Aug-14 03:00N 53°30' E 005°11'5 9.9
2018-Aug-14 02:30N 53°29' E 005°03'5 9.8
2018-Aug-14 02:00N 53°27' E 004°55'510.0
2018-Aug-14 01:30N 53°25' E 004°48'5 9.8
2018-Aug-14 01:00N 53°22' E 004°42'510.2
2018-Aug-14 00:30N 53°17' E 004°38'510.4
2018-Aug-14 00:00N 53°12' E 004°35'510.1
2018-Aug-13 23:30N 53°08' E 004°30'510.0
2018-Aug-13 23:00N 53°04' E 004°26'510.0
2018-Aug-13 22:30N 52°59' E 004°22'5 9.1
2018-Aug-13 21:59N 52°55' E 004°19'5 9.8
2018-Aug-13 21:30N 52°51' E 004°15'1910.9
2018-Aug-13 19:48N 52°37' E 003°55'411.9
2018-Aug-13 19:30N 52°34' E 003°51'612.0
2018-Aug-13 18:58N 52°30' E 003°43'611.9
2018-Aug-13 18:30N 52°26' E 003°37'612.3
2018-Aug-13 17:59N 52°21' E 003°29'612.5
2018-Aug-13 17:30N 52°17' E 003°22'5213.2
2018-Aug-13 13:33N 51°38' E 002°26'113.2
2018-Aug-13 13:27N 51°37' E 002°25'612.8
2018-Aug-13 13:00N 51°33' E 002°19'612.2
2018-Aug-13 12:29N 51°27' E 002°14'611.6
2018-Aug-13 12:00N 51°22' E 002°10'611.4
2018-Aug-13 11:30N 51°17' E 002°06'510.0
2018-Aug-13 11:00N 51°13' E 002°01'5 9.8
2018-Aug-13 10:30N 51°10' E 001°55'4 8.9
2018-Aug-13 10:00N 51°08' E 001°49'4 8.3
2018-Aug-13 09:30N 51°05' E 001°44'4 7.9
2018-Aug-13 09:00N 51°02' E 001°39'4 7.6
2018-Aug-13 08:30N 50°60' E 001°35'4 7.9
2018-Aug-13 08:00N 50°57' E 001°31'4 7.8
2018-Aug-13 07:30N 50°54' E 001°28'4 8.4
2018-Aug-13 07:00N 50°50' E 001°26'58 9.6
2018-Aug-13 00:58N 50°21' E 000°06'511.3
2018-Aug-13 00:30N 50°19' W 000°01'611.7
2018-Aug-13 00:00N 50°16' W 000°09'1412.6
2018-Aug-12 22:54N 50°12' W 000°30'513.7
2018-Aug-12 22:30N 50°11' W 000°38'714.3
2018-Aug-12 21:59N 50°09' W 000°49'6314.4
2018-Aug-12 17:35N 49°53' W 002°25'1810.9
2018-Aug-12 15:57N 49°50' W 002°52'16 9.6
2018-Aug-12 14:17N 49°49' W 003°17'16 9.4
2018-Aug-12 12:33N 49°49' W 003°42'1 9.6
2018-Aug-12 12:28N 49°49' W 003°43'164 6.7
2018-Aug-11 11:58N 52°16' W 005°40'611.8
2018-Aug-11 11:29N 52°22' W 005°36'103 9.2
2018-Aug-11 00:22N 53°34' W 003°34'412.0
2018-Aug-11 00:00N 53°33' W 003°27'611.7
2018-Aug-10 23:30N 53°32' W 003°18'4 8.7
2018-Aug-10 23:00N 53°32' W 003°10'5 9.9
2018-Aug-10 22:30N 53°28' W 003°04'4 8.8
2018-Aug-10 22:00N 53°25' W 003°00'4 8.1
2018-Aug-10 21:30N 53°21' W 002°58'1 2.9
2018-Aug-10 21:00N 53°19' W 002°57'0 0.2
2018-Aug-10 20:30N 53°19' W 002°57'0 0.0
2018-Aug-10 07:01N 53°19' W 002°57'0 0.0
2018-Aug-10 06:37N 53°19' W 002°57'0 0.0
2018-Aug-10 03:19N 53°19' W 002°57'0 0.0
2018-Aug-10 02:37N 53°19' W 002°57'0 0.0
2018-Aug-10 02:07N 53°19' W 002°57'0 0.0
2018-Aug-10 01:37N 53°19' W 002°57'0 0.0
2018-Aug-10 01:19N 53°19' W 002°57'0 0.0
2018-Aug-10 00:55N 53°19' W 002°57'0 0.4
2018-Aug-10 00:30N 53°19' W 002°57'0 0.0
2018-Aug-09 23:59N 53°19' W 002°57'0 0.0
2018-Aug-09 23:29N 53°19' W 002°57'0 0.0
2018-Aug-09 23:00N 53°19' W 002°57'0 0.6
2018-Aug-09 22:30N 53°20' W 002°57'4 7.8
2018-Aug-09 22:00N 53°23' W 002°60'611.6
2018-Aug-09 21:30N 53°28' W 003°04'510.1
2018-Aug-09 21:00N 53°31' W 003°11'510.4
2018-Aug-09 20:30N 53°31' W 003°20'4 7.3
2018-Aug-09 20:00N 53°31' W 003°26'4 8.3
2018-Aug-09 19:30N 53°31' W 003°33'5 9.8
2018-Aug-09 19:00N 53°31' W 003°41'611.3
2018-Aug-09 18:30N 53°31' W 003°51'612.6
2018-Aug-09 18:00N 53°30' W 004°01'13910.7
2018-Aug-09 05:00N 51°29' W 005°52'112 8.5
2018-Aug-08 15:50N 49°55' W 004°14'1910.4
2018-Aug-08 14:02N 49°57' W 003°45'010.3
2018-Aug-08 14:00N 49°57' W 003°45'510.7
2018-Aug-08 13:30N 49°58' W 003°37'711.1
2018-Aug-08 12:54N 49°58' W 003°26'511.6
2018-Aug-08 12:30N 49°59' W 003°19'612.1
2018-Aug-08 11:59N 49°59' W 003°10'612.2
2018-Aug-08 11:30N 50°00' W 003°00'612.8
2018-Aug-08 11:00N 50°01' W 002°51'713.1
2018-Aug-08 10:30N 50°03' W 002°41'6511.2
2018-Aug-08 04:43N 50°20' W 001°03'8 8.6
2018-Aug-08 03:45N 50°22' W 000°51'5 9.5
2018-Aug-08 03:14N 50°23' W 000°43'2 9.6
2018-Aug-08 03:00N 50°24' W 000°40'6 9.7
2018-Aug-08 02:26N 50°25' W 000°31'1910.9
2018-Aug-08 00:40N 50°31' W 000°03'311.6
2018-Aug-08 00:24N 50°32' E 000°02'511.7
2018-Aug-08 00:00N 50°33' E 000°09'612.0
2018-Aug-07 23:30N 50°35' E 000°18'612.0
2018-Aug-07 23:00N 50°37' E 000°27'611.6
2018-Aug-07 22:30N 50°39' E 000°36'611.3
2018-Aug-07 22:00N 50°42' E 000°43'611.0
2018-Aug-07 21:30N 50°45' E 000°50'510.7
2018-Aug-07 21:00N 50°48' E 000°57'510.5
2018-Aug-07 20:30N 50°52' E 001°04'510.4
2018-Aug-07 20:01N 50°55' E 001°10'510.1
2018-Aug-07 19:31N 50°58' E 001°16'5 9.8
2018-Aug-07 19:00N 51°01' E 001°22'510.0
2018-Aug-07 18:30N 51°05' E 001°28'1211.8
2018-Aug-07 17:30N 51°12' E 001°42'612.6
2018-Aug-07 17:00N 51°17' E 001°48'713.1
2018-Aug-07 16:30N 51°23' E 001°54'611.2
2018-Aug-07 16:00N 51°24' E 002°03'611.7
2018-Aug-07 15:30N 51°22' E 002°11'611.4
2018-Aug-07 15:00N 51°21' E 002°20'612.7
2018-Aug-07 14:30N 51°23' E 002°30'611.9
2018-Aug-07 14:00N 51°23' E 002°40'612.0
2018-Aug-07 13:30N 51°22' E 002°49'612.2
2018-Aug-07 13:00N 51°23' E 002°59'611.8
2018-Aug-07 12:29N 51°24' E 003°08'612.6
2018-Aug-07 12:00N 51°24' E 003°18'612.6
2018-Aug-07 11:30N 51°25' E 003°28'611.0
2018-Aug-07 11:00N 51°25' E 003°37'612.2
2018-Aug-07 10:30N 51°24' E 003°46'5 9.8
2018-Aug-07 10:00N 51°23' E 003°54'5 9.3
2018-Aug-07 09:30N 51°26' E 003°60'510.1
2018-Aug-07 09:00N 51°23' E 004°06'4 8.6
2018-Aug-07 08:30N 51°24' E 004°12'5 9.9
2018-Aug-07 08:00N 51°19' E 004°16'4 7.2
2018-Aug-07 07:30N 51°16' E 004°18'1 1.2
2018-Aug-07 07:01N 51°16' E 004°17'0 0.0
2018-Aug-07 06:30N 51°16' E 004°17'0 0.0
2018-Aug-07 06:00N 51°16' E 004°17'1 1.2
2018-Aug-07 05:30N 51°16' E 004°16'2 1.1
2018-Aug-07 03:54N 51°17' E 004°14'0 0.0
2018-Aug-07 00:54N 51°17' E 004°14'0 0.0
2018-Aug-06 21:36N 51°17' E 004°14'0 0.0
2018-Aug-06 21:06N 51°17' E 004°14'0 0.0
2018-Aug-06 17:21N 51°17' E 004°14'0 0.0
2018-Aug-06 14:24N 51°17' E 004°14'0 0.0
2018-Aug-06 13:54N 51°17' E 004°14'0 0.0
2018-Aug-06 00:30N 51°17' E 004°14'0 0.0
2018-Aug-05 22:21N 51°17' E 004°14'0 0.1
2018-Aug-05 22:00N 51°17' E 004°14'1 1.6
2018-Aug-05 21:30N 51°17' E 004°15'0 0.0
2018-Aug-05 21:00N 51°17' E 004°15'1 1.5
2018-Aug-05 20:30N 51°17' E 004°15'2 4.0
2018-Aug-05 20:00N 51°19' E 004°16'4 9.0
2018-Aug-05 19:30N 51°23' E 004°13'5 9.9
2018-Aug-05 19:00N 51°22' E 004°05'510.7
2018-Aug-05 18:30N 51°26' E 003°59'713.4
2018-Aug-05 18:01N 51°21' E 003°52'612.8
2018-Aug-05 17:31N 51°23' E 003°43'612.0
2018-Aug-05 17:00N 51°26' E 003°34'4 8.4
2018-Aug-05 16:30N 51°29' E 003°29'5 9.6
2018-Aug-05 16:01N 51°33' E 003°25'5 9.1
2018-Aug-05 15:30N 51°37' E 003°21'611.1
2018-Aug-05 15:00N 51°42' E 003°16'510.6
2018-Aug-05 14:31N 51°46' E 003°12'4 3.9
2018-Aug-05 13:30N 51°49' E 003°16'510.2
2018-Aug-05 12:59N 51°54' E 003°18'510.0
2018-Aug-05 12:30N 51°59' E 003°19'5 9.7
2018-Aug-05 12:00N 52°04' E 003°20'5 9.3
2018-Aug-05 11:30N 52°09' E 003°21'4 9.0
2018-Aug-05 11:00N 52°13' E 003°22'4 8.7
2018-Aug-05 10:30N 52°17' E 003°24'4 8.2
2018-Aug-05 10:00N 52°21' E 003°26'4 8.1
2018-Aug-05 09:30N 52°25' E 003°28'4 8.8
2018-Aug-05 09:00N 52°29' E 003°29'4 8.6
2018-Aug-05 08:31N 52°34' E 003°30'4 8.5
2018-Aug-05 08:00N 52°38' E 003°31'4 8.8
2018-Aug-05 07:30N 52°42' E 003°35'4 9.1
2018-Aug-05 07:00N 52°45' E 003°40'7 9.3
2018-Aug-05 06:15N 52°50' E 003°47'2 9.2
2018-Aug-05 06:00N 52°52' E 003°50'6 9.4
2018-Aug-05 05:25N 52°56' E 003°57'4 9.8
2018-Aug-05 05:00N 52°58' E 004°02'5 9.8
2018-Aug-05 04:28N 53°02' E 004°09'5 9.9
2018-Aug-05 03:57N 53°05' E 004°15'710.2
2018-Aug-05 03:16N 53°09' E 004°24'  
Track history (hours):
 
Tides and Currents Weather Stations Pressure Air Temp Water Temp Dewpoint Dewpoint Depression Visibility Wind Speed Wind Dir Waves Ship Positions

Amuleth

Last reported at 2018-Aug-14 23:28 UTC. Time now 2018-Aug-14 23:45 UTC.
Position N 53°38' E 008°07'.

Length 102 m; draft 6.9 m.

Type: Ship (hazmat cat B). MMSI: 209066000.

Date/timePositionNaut miles runAvg speedWind from/ knotsBaromVisibWave heightAir tempDewpointWater temp
2018-Aug-14 23:28N 53°38' E 008°07'0 0.0
2018-Aug-14 22:55N 53°38' E 008°07'0 0.0
2018-Aug-14 14:13N 53°38' E 008°07'0 2.2
2018-Aug-14 14:00N 53°39' E 008°06'4 8.3
2018-Aug-14 13:30N 53°43' E 008°04'5 9.5
2018-Aug-14 13:00N 53°47' E 008°02'611.8
2018-Aug-14 12:30N 53°50' E 007°53'7510.4
2018-Aug-14 05:14N 53°38' E 005°47'310.7
2018-Aug-14 04:59N 53°37' E 005°43'510.6
2018-Aug-14 04:30N 53°35' E 005°35'510.4
2018-Aug-14 04:00N 53°34' E 005°27'510.1
2018-Aug-14 03:30N 53°32' E 005°19'5 9.9
2018-Aug-14 03:00N 53°30' E 005°11'5 9.9
2018-Aug-14 02:30N 53°29' E 005°03'5 9.8
2018-Aug-14 02:00N 53°27' E 004°55'510.0
2018-Aug-14 01:30N 53°25' E 004°48'5 9.8
2018-Aug-14 01:00N 53°22' E 004°42'510.2
2018-Aug-14 00:30N 53°17' E 004°38'510.4
2018-Aug-14 00:00N 53°12' E 004°35'510.1
2018-Aug-13 23:30N 53°08' E 004°30'510.0
2018-Aug-13 23:00N 53°04' E 004°26'510.0
2018-Aug-13 22:30N 52°59' E 004°22'5 9.1
2018-Aug-13 21:59N 52°55' E 004°19'5 9.8
2018-Aug-13 21:30N 52°51' E 004°15'1910.9
2018-Aug-13 19:48N 52°37' E 003°55'411.9
2018-Aug-13 19:30N 52°34' E 003°51'612.0
2018-Aug-13 18:58N 52°30' E 003°43'611.9
2018-Aug-13 18:30N 52°26' E 003°37'612.3
2018-Aug-13 17:59N 52°21' E 003°29'612.5
2018-Aug-13 17:30N 52°17' E 003°22'5213.2
2018-Aug-13 13:33N 51°38' E 002°26'113.2
2018-Aug-13 13:27N 51°37' E 002°25'612.8
2018-Aug-13 13:00N 51°33' E 002°19'612.2
2018-Aug-13 12:29N 51°27' E 002°14'611.6
2018-Aug-13 12:00N 51°22' E 002°10'611.4
2018-Aug-13 11:30N 51°17' E 002°06'510.0
2018-Aug-13 11:00N 51°13' E 002°01'5 9.8
2018-Aug-13 10:30N 51°10' E 001°55'4 8.9
2018-Aug-13 10:00N 51°08' E 001°49'4 8.3
2018-Aug-13 09:30N 51°05' E 001°44'4 7.9
2018-Aug-13 09:00N 51°02' E 001°39'4 7.6
2018-Aug-13 08:30N 50°60' E 001°35'4 7.9
2018-Aug-13 08:00N 50°57' E 001°31'4 7.8
2018-Aug-13 07:30N 50°54' E 001°28'4 8.4
2018-Aug-13 07:00N 50°50' E 001°26'58 9.6
2018-Aug-13 00:58N 50°21' E 000°06'511.3
2018-Aug-13 00:30N 50°19' W 000°01'611.7
2018-Aug-13 00:00N 50°16' W 000°09'1412.6
2018-Aug-12 22:54N 50°12' W 000°30'513.7
2018-Aug-12 22:30N 50°11' W 000°38'714.3
2018-Aug-12 21:59N 50°09' W 000°49'6314.4
2018-Aug-12 17:35N 49°53' W 002°25'1810.9
2018-Aug-12 15:57N 49°50' W 002°52'16 9.6
2018-Aug-12 14:17N 49°49' W 003°17'16 9.4
2018-Aug-12 12:33N 49°49' W 003°42'1 9.6
2018-Aug-12 12:28N 49°49' W 003°43'164 6.7
2018-Aug-11 11:58N 52°16' W 005°40'611.8
2018-Aug-11 11:29N 52°22' W 005°36'103 9.2
2018-Aug-11 00:22N 53°34' W 003°34'412.0
2018-Aug-11 00:00N 53°33' W 003°27'611.7
2018-Aug-10 23:30N 53°32' W 003°18'4 8.7
2018-Aug-10 23:00N 53°32' W 003°10'5 9.9
2018-Aug-10 22:30N 53°28' W 003°04'4 8.8
2018-Aug-10 22:00N 53°25' W 003°00'4 8.1
2018-Aug-10 21:30N 53°21' W 002°58'1 2.9
2018-Aug-10 21:00N 53°19' W 002°57'0 0.2
2018-Aug-10 20:30N 53°19' W 002°57'0 0.0
2018-Aug-10 07:01N 53°19' W 002°57'0 0.0
2018-Aug-10 06:37N 53°19' W 002°57'0 0.0
2018-Aug-10 03:19N 53°19' W 002°57'0 0.0
2018-Aug-10 02:37N 53°19' W 002°57'0 0.0
2018-Aug-10 02:07N 53°19' W 002°57'0 0.0
2018-Aug-10 01:37N 53°19' W 002°57'0 0.0
2018-Aug-10 01:19N 53°19' W 002°57'0 0.0
2018-Aug-10 00:55N 53°19' W 002°57'0 0.4
2018-Aug-10 00:30N 53°19' W 002°57'0 0.0
2018-Aug-09 23:59N 53°19' W 002°57'0 0.0
2018-Aug-09 23:29N 53°19' W 002°57'0 0.0
2018-Aug-09 23:00N 53°19' W 002°57'0 0.6
2018-Aug-09 22:30N 53°20' W 002°57'4 7.8
2018-Aug-09 22:00N 53°23' W 002°60'611.6
2018-Aug-09 21:30N 53°28' W 003°04'510.1
2018-Aug-09 21:00N 53°31' W 003°11'510.4
2018-Aug-09 20:30N 53°31' W 003°20'4 7.3
2018-Aug-09 20:00N 53°31' W 003°26'4 8.3
2018-Aug-09 19:30N 53°31' W 003°33'5 9.8
2018-Aug-09 19:00N 53°31' W 003°41'611.3
2018-Aug-09 18:30N 53°31' W 003°51'612.6
2018-Aug-09 18:00N 53°30' W 004°01'13910.7
2018-Aug-09 05:00N 51°29' W 005°52'112 8.5
2018-Aug-08 15:50N 49°55' W 004°14'1910.4
2018-Aug-08 14:02N 49°57' W 003°45'010.3
2018-Aug-08 14:00N 49°57' W 003°45'510.7
2018-Aug-08 13:30N 49°58' W 003°37'711.1
2018-Aug-08 12:54N 49°58' W 003°26'511.6
2018-Aug-08 12:30N 49°59' W 003°19'612.1
2018-Aug-08 11:59N 49°59' W 003°10'612.2
2018-Aug-08 11:30N 50°00' W 003°00'612.8
2018-Aug-08 11:00N 50°01' W 002°51'713.1
2018-Aug-08 10:30N 50°03' W 002°41'6511.2
2018-Aug-08 04:43N 50°20' W 001°03'8 8.6
2018-Aug-08 03:45N 50°22' W 000°51'5 9.5
2018-Aug-08 03:14N 50°23' W 000°43'2 9.6
2018-Aug-08 03:00N 50°24' W 000°40'6 9.7
2018-Aug-08 02:26N 50°25' W 000°31'1910.9
2018-Aug-08 00:40N 50°31' W 000°03'311.6
2018-Aug-08 00:24N 50°32' E 000°02'511.7
2018-Aug-08 00:00N 50°33' E 000°09'612.0
2018-Aug-07 23:30N 50°35' E 000°18'612.0
2018-Aug-07 23:00N 50°37' E 000°27'611.6
2018-Aug-07 22:30N 50°39' E 000°36'611.3
2018-Aug-07 22:00N 50°42' E 000°43'611.0
2018-Aug-07 21:30N 50°45' E 000°50'510.7
2018-Aug-07 21:00N 50°48' E 000°57'510.5
2018-Aug-07 20:30N 50°52' E 001°04'510.4
2018-Aug-07 20:01N 50°55' E 001°10'510.1
2018-Aug-07 19:31N 50°58' E 001°16'5 9.8
2018-Aug-07 19:00N 51°01' E 001°22'510.0
2018-Aug-07 18:30N 51°05' E 001°28'1211.8
2018-Aug-07 17:30N 51°12' E 001°42'612.6
2018-Aug-07 17:00N 51°17' E 001°48'713.1
2018-Aug-07 16:30N 51°23' E 001°54'611.2
2018-Aug-07 16:00N 51°24' E 002°03'611.7
2018-Aug-07 15:30N 51°22' E 002°11'611.4
2018-Aug-07 15:00N 51°21' E 002°20'612.7
2018-Aug-07 14:30N 51°23' E 002°30'611.9
2018-Aug-07 14:00N 51°23' E 002°40'612.0
2018-Aug-07 13:30N 51°22' E 002°49'612.2
2018-Aug-07 13:00N 51°23' E 002°59'611.8
2018-Aug-07 12:29N 51°24' E 003°08'612.6
2018-Aug-07 12:00N 51°24' E 003°18'612.6
2018-Aug-07 11:30N 51°25' E 003°28'611.0
2018-Aug-07 11:00N 51°25' E 003°37'612.2
2018-Aug-07 10:30N 51°24' E 003°46'5 9.8
2018-Aug-07 10:00N 51°23' E 003°54'5 9.3
2018-Aug-07 09:30N 51°26' E 003°60'510.1
2018-Aug-07 09:00N 51°23' E 004°06'4 8.6
2018-Aug-07 08:30N 51°24' E 004°12'5 9.9
2018-Aug-07 08:00N 51°19' E 004°16'4 7.2
2018-Aug-07 07:30N 51°16' E 004°18'1 1.2
2018-Aug-07 07:01N 51°16' E 004°17'0 0.0
2018-Aug-07 06:30N 51°16' E 004°17'0 0.0
2018-Aug-07 06:00N 51°16' E 004°17'1 1.2
2018-Aug-07 05:30N 51°16' E 004°16'2 1.1
2018-Aug-07 03:54N 51°17' E 004°14'0 0.0
2018-Aug-07 00:54N 51°17' E 004°14'0 0.0
2018-Aug-06 21:36N 51°17' E 004°14'0 0.0
2018-Aug-06 21:06N 51°17' E 004°14'0 0.0
2018-Aug-06 17:21N 51°17' E 004°14'0 0.0
2018-Aug-06 14:24N 51°17' E 004°14'0 0.0
2018-Aug-06 13:54N 51°17' E 004°14'0 0.0
2018-Aug-06 00:30N 51°17' E 004°14'0 0.0
2018-Aug-05 22:21N 51°17' E 004°14'0 0.1
2018-Aug-05 22:00N 51°17' E 004°14'1 1.6
2018-Aug-05 21:30N 51°17' E 004°15'0 0.0
2018-Aug-05 21:00N 51°17' E 004°15'1 1.5
2018-Aug-05 20:30N 51°17' E 004°15'2 4.0
2018-Aug-05 20:00N 51°19' E 004°16'4 9.0
2018-Aug-05 19:30N 51°23' E 004°13'5 9.9
2018-Aug-05 19:00N 51°22' E 004°05'510.7
2018-Aug-05 18:30N 51°26' E 003°59'713.4
2018-Aug-05 18:01N 51°21' E 003°52'612.8
2018-Aug-05 17:31N 51°23' E 003°43'612.0
2018-Aug-05 17:00N 51°26' E 003°34'4 8.4
2018-Aug-05 16:30N 51°29' E 003°29'5 9.6
2018-Aug-05 16:01N 51°33' E 003°25'5 9.1
2018-Aug-05 15:30N 51°37' E 003°21'611.1
2018-Aug-05 15:00N 51°42' E 003°16'510.6
2018-Aug-05 14:31N 51°46' E 003°12'4 3.9
2018-Aug-05 13:30N 51°49' E 003°16'510.2
2018-Aug-05 12:59N 51°54' E 003°18'510.0
2018-Aug-05 12:30N 51°59' E 003°19'5 9.7
2018-Aug-05 12:00N 52°04' E 003°20'5 9.3
2018-Aug-05 11:30N 52°09' E 003°21'4 9.0
2018-Aug-05 11:00N 52°13' E 003°22'4 8.7
2018-Aug-05 10:30N 52°17' E 003°24'4 8.2
2018-Aug-05 10:00N 52°21' E 003°26'4 8.1
2018-Aug-05 09:30N 52°25' E 003°28'4 8.8
2018-Aug-05 09:00N 52°29' E 003°29'4 8.6
2018-Aug-05 08:31N 52°34' E 003°30'4 8.5
2018-Aug-05 08:00N 52°38' E 003°31'4 8.8
2018-Aug-05 07:30N 52°42' E 003°35'4 9.1
2018-Aug-05 07:00N 52°45' E 003°40'7 9.3
2018-Aug-05 06:15N 52°50' E 003°47'2 9.2
2018-Aug-05 06:00N 52°52' E 003°50'6 9.4
2018-Aug-05 05:25N 52°56' E 003°57'4 9.8
2018-Aug-05 05:00N 52°58' E 004°02'5 9.8
2018-Aug-05 04:28N 53°02' E 004°09'5 9.9
2018-Aug-05 03:57N 53°05' E 004°15'710.2
2018-Aug-05 03:16N 53°09' E 004°24'  

Dump ship's entire track history